Time;durP1;ratioP1;P1;durP2;ratioP2;P2;SDS_P1;SDS_P2;PMS_P1;PMS_P2;Temp;Humidity;BMP_temperature;BMP_pressure;BME280_temperature;BME280_humidity;BME280_pressure;Samples;Min_cycle;Max_cycle;Signal;HPM_P1;HPM_P2
2022/04/11 00:01:34;;;;;;;2.20;1.05;;;;;;;1.46;100.00;98775.88;10423988;28;20056;-65
2022/04/11 00:06:39;;;;;;;2.42;1.00;;;;;;;1.41;100.00;98778.84;10425004;28;20129;-65
2022/04/11 00:11:42;;;;;;;3.45;1.10;;;;;;;1.36;100.00;98786.22;10439154;28;20128;-65
2022/04/11 00:16:45;;;;;;;1.77;0.98;;;;;;;1.28;100.00;98777.88;10439222;28;20045;-65
2022/04/11 00:21:50;;;;;;;2.58;1.10;;;;;;;1.20;100.00;98776.56;10439005;28;20052;-65
2022/04/11 00:26:53;;;;;;;1.88;1.00;;;;;;;1.16;100.00;98779.47;10420933;28;20527;-64
2022/04/11 00:31:56;;;;;;;1.58;1.10;;;;;;;1.09;100.00;98773.69;10439013;28;20429;-63
2022/04/11 00:37:01;;;;;;;1.95;1.08;;;;;;;1.05;100.00;98767.72;10436462;28;20122;-63
2022/04/11 00:42:10;;;;;;;1.90;1.00;;;;;;;1.00;100.00;98766.28;10420340;28;20164;-63
2022/04/11 00:47:13;;;;;;;1.67;1.20;;;;;;;0.95;100.00;98765.69;10424281;28;20468;-64
2022/04/11 00:52:17;;;;;;;2.33;1.10;;;;;;;0.89;100.00;98762.47;10258518;28;5001881;-65
2022/04/11 00:57:22;;;;;;;1.90;1.30;;;;;;;0.86;100.00;98767.09;10428828;28;20152;-65
2022/04/11 01:02:25;;;;;;;2.22;1.30;;;;;;;0.83;100.00;98761.97;10419158;28;20057;-65
2022/04/11 01:07:30;;;;;;;2.65;1.30;;;;;;;0.79;100.00;98771.91;10436173;28;20138;-65
2022/04/11 01:12:33;;;;;;;1.50;1.20;;;;;;;0.74;100.00;98766.88;10418629;28;20936;-65
2022/04/11 01:17:38;;;;;;;2.08;1.25;;;;;;;0.70;100.00;98761.84;10437158;28;20045;-65
2022/04/11 01:22:44;;;;;;;1.90;1.20;;;;;;;0.65;100.00;98758.63;10435063;28;20060;-64
2022/04/11 01:27:47;;;;;;;2.22;1.40;;;;;;;0.61;100.00;98768.53;10419058;28;20049;-64
2022/04/11 01:32:50;;;;;;;1.73;1.20;;;;;;;0.57;100.00;98778.47;10436306;28;20049;-65
2022/04/11 01:37:56;;;;;;;2.85;1.33;;;;;;;0.55;100.00;98775.06;10418324;28;20049;-63
2022/04/11 01:42:59;;;;;;;1.80;1.30;;;;;;;0.51;100.00;98772.69;10418413;28;20049;-64
2022/04/11 01:48:04;;;;;;;2.10;1.20;;;;;;;0.48;100.00;98779.00;10412767;28;20063;-65
2022/04/11 01:53:10;;;;;;;1.45;1.25;;;;;;;0.43;100.00;98776.63;10435925;28;20532;-65
2022/04/11 01:58:16;;;;;;;2.28;1.27;;;;;;;0.38;100.00;98777.84;10417970;28;20462;-64
2022/04/11 02:03:19;;;;;;;2.85;1.20;;;;;;;0.34;100.00;98778.94;10427636;28;20057;-64
2022/04/11 02:08:24;;;;;;;2.75;1.40;;;;;;;0.26;100.00;98785.56;10411888;28;20052;-64
2022/04/11 02:13:33;;;;;;;2.60;1.50;;;;;;;0.17;100.00;98783.44;10417545;28;20191;-65
2022/04/11 02:18:36;;;;;;;2.45;1.40;;;;;;;0.13;100.00;98784.53;10416633;28;20110;-64
2022/04/11 02:23:41;;;;;;;1.48;1.17;;;;;;;0.07;100.00;98785.72;10415859;28;20049;-65
2022/04/11 02:28:44;;;;;;;2.67;1.23;;;;;;;0.01;100.00;98790.53;10416868;28;20063;-65
2022/04/11 02:33:47;;;;;;;2.70;1.40;;;;;;;-0.04;100.00;98788.97;10434013;28;20052;-64
2022/04/11 02:38:51;;;;;;;2.42;1.33;;;;;;;-0.08;100.00;98786.59;10433803;28;20072;-63
2022/04/11 02:43:55;;;;;;;4.25;1.65;;;;;;;-0.14;100.00;98785.13;10434422;28;20148;-64
2022/04/11 02:48:59;;;;;;;5.03;1.85;;;;;;;-0.14;100.00;98790.41;10416265;28;21478;-64
2022/04/11 02:54:10;;;;;;;2.75;1.40;;;;;;;-0.17;100.00;98788.81;10432670;28;20052;-64
2022/04/11 02:59:17;;;;;;;1.65;1.25;;;;;;;-0.19;100.00;98788.03;10415952;28;20056;-63
2022/04/11 03:04:26;;;;;;;3.55;1.70;;;;;;;-0.18;100.00;98781.78;10419692;28;20056;-62
2022/04/11 03:09:53;;;;;;;2.08;1.50;;;;;;;-0.21;100.00;98770.53;10441660;28;20060;-63
2022/04/11 03:14:57;;;;;;;2.47;1.30;;;;;;;-0.20;100.00;98774.88;10423600;28;20528;-62
2022/04/11 03:20:01;;;;;;;2.45;1.30;;;;;;;-0.23;100.00;98773.22;10419206;28;20053;-61
2022/04/11 03:25:09;;;;;;;4.53;1.55;;;;;;;-0.24;100.00;98770.69;10429971;28;20086;-64
2022/04/11 03:30:15;;;;;;;2.70;1.50;;;;;;;-0.27;100.00;98770.84;10425638;28;20044;-62
2022/04/11 03:35:18;;;;;;;2.55;1.60;;;;;;;-0.29;100.00;98775.41;10422601;28;20488;-61
2022/04/11 03:40:23;;;;;;;3.95;1.77;;;;;;;-0.32;100.00;98769.31;10440232;28;20064;-62
2022/04/11 03:45:28;;;;;;;4.18;1.50;;;;;;;-0.34;100.00;98765.91;10423010;28;20505;-62
2022/04/11 03:50:32;;;;;;;2.42;1.48;;;;;;;-0.38;100.00;98774.94;10438949;28;20517;-59
2022/04/11 03:55:37;;;;;;;2.78;1.40;;;;;;;-0.40;100.00;98762.72;10422416;28;20567;-59
2022/04/11 04:00:43;;;;;;;2.17;1.67;;;;;;;-0.44;100.00;98758.53;10438404;28;20439;-60
2022/04/11 04:05:55;;;;;;;2.40;1.60;;;;;;;-0.45;100.00;98762.13;10422558;28;20055;-62
2022/04/11 04:11:07;;;;;;;5.32;1.73;;;;;;;-0.48;100.00;98756.06;10421642;28;20057;-64
2022/04/11 04:16:17;;;;;;;2.58;1.70;;;;;;;-0.48;100.00;98755.19;10420846;28;20398;-63
2022/04/11 04:21:27;;;;;;;2.38;1.52;;;;;;;-0.46;100.00;98742.75;10437647;28;20049;-64
2022/04/11 04:26:32;;;;;;;2.47;1.55;;;;;;;-0.48;100.00;98744.63;10421152;28;20575;-64
2022/04/11 04:31:37;;;;;;;3.03;1.70;;;;;;;-0.49;100.00;98751.72;10437498;28;20055;-64
2022/04/11 04:36:41;;;;;;;2.00;1.40;;;;;;;-0.45;100.00;98746.22;10432864;28;20413;-64
2022/04/11 04:41:46;;;;;;;3.78;1.30;;;;;;;-0.45;100.00;98747.09;10415170;28;20047;-64
2022/04/11 04:46:52;;;;;;;2.70;1.65;;;;;;;-0.44;100.00;98754.09;10427061;28;20045;-65
2022/04/11 04:52:15;;;;;;;2.85;1.30;;;;;;;-0.41;100.00;98753.06;10430793;28;20057;-63
2022/04/11 04:57:30;;;;;;;2.20;1.38;;;;;;;-0.37;100.00;98755.47;10409319;28;20045;-62
2022/04/11 05:02:37;;;;;;;2.22;1.25;;;;;;;-0.35;100.00;98758.03;10414188;28;20061;-62
2022/04/11 05:07:56;;;;;;;2.42;1.60;;;;;;;-0.30;100.00;98750.69;10410898;28;20053;-64
2022/04/11 05:13:04;;;;;;;3.67;1.50;;;;;;;-0.26;100.00;98761.97;10414013;28;20053;-63
2022/04/11 05:18:08;;;;;;;3.70;1.48;;;;;;;-0.20;100.00;98756.34;10415010;28;20094;-63
2022/04/11 05:23:12;;;;;;;2.38;1.50;;;;;;;-0.11;100.00;98753.19;10415078;28;20500;-64
2022/04/11 05:28:19;;;;;;;2.22;1.20;;;;;;;-0.03;100.00;98750.09;10412439;28;20053;-62
2022/04/11 05:33:28;;;;;;;2.40;1.35;;;;;;;0.02;100.00;98750.69;10408302;28;20052;-62
2022/04/11 05:38:32;;;;;;;3.67;1.38;;;;;;;0.09;100.00;98751.19;10429623;28;20738;-61
2022/04/11 05:43:37;;;;;;;2.33;1.35;;;;;;;0.18;100.00;98761.25;10412867;28;20180;-63
2022/04/11 05:48:42;;;;;;;2.95;1.55;;;;;;;0.26;100.00;98759.06;10413708;28;20272;-60
2022/04/11 05:53:46;;;;;;;4.07;1.73;;;;;;;0.34;100.00;98773.66;10430237;28;20063;-62
2022/04/11 05:58:51;;;;;;;2.10;1.42;;;;;;;0.42;100.00;98764.31;10414290;28;20053;-60
2022/04/11 06:03:54;;;;;;;3.42;1.58;;;;;;;0.52;100.00;98769.97;10420529;28;20459;-66
2022/04/11 06:09:04;;;;;;;3.85;1.60;;;;;;;0.60;100.00;98774.78;10425993;28;20053;-61
2022/04/11 06:14:10;;;;;;;3.38;1.77;;;;;;;0.70;100.00;98777.75;10429543;28;20394;-64
2022/04/11 06:19:13;;;;;;;3.80;1.40;;;;;;;0.76;100.00;98775.59;10413528;28;20065;-66
2022/04/11 06:24:17;;;;;;;2.50;1.42;;;;;;;0.95;100.00;98778.97;10430381;28;20799;-62
2022/04/11 06:29:21;;;;;;;1.75;1.25;;;;;;;1.07;100.00;98784.38;10431288;28;20464;-63
2022/04/11 06:34:24;;;;;;;2.15;1.15;;;;;;;1.22;100.00;98782.63;10412853;28;20136;-63
2022/04/11 06:39:28;;;;;;;2.60;1.00;;;;;;;1.37;100.00;98774.66;10429892;28;20053;-65
2022/04/11 06:44:37;;;;;;;1.70;1.10;;;;;;;1.54;100.00;98777.13;10420360;28;20087;-61
2022/04/11 06:49:46;;;;;;;1.90;0.98;;;;;;;1.69;100.00;98780.63;10434529;28;20056;-64
2022/04/11 06:54:49;;;;;;;2.33;1.10;;;;;;;1.84;100.00;98776.13;10430485;28;20095;-63
2022/04/11 06:59:53;;;;;;;1.88;1.00;;;;;;;1.99;100.00;98777.00;10415509;28;20050;-64
2022/04/11 07:04:56;;;;;;;2.70;1.05;;;;;;;2.12;100.00;98773.50;10439350;28;21056;-64
2022/04/11 07:10:00;;;;;;;2.80;1.48;;;;;;;2.26;100.00;98767.31;10435671;28;20048;-63
2022/04/11 07:15:05;;;;;;;2.25;1.02;;;;;;;2.38;100.00;98768.31;10437374;28;20096;-64
2022/04/11 07:20:10;;;;;;;2.13;1.20;;;;;;;2.52;100.00;98776.25;10436484;28;20043;-64
2022/04/11 07:25:13;;;;;;;2.28;1.35;;;;;;;2.69;100.00;98777.78;10437957;28;20131;-62
2022/04/11 07:30:17;;;;;;;4.18;1.20;;;;;;;2.84;100.00;98773.22;10437713;28;20059;-64
2022/04/11 07:35:20;;;;;;;1.13;0.90;;;;;;;3.11;100.00;98774.13;10436808;28;20141;-65
2022/04/11 07:40:23;;;;;;;1.92;1.20;;;;;;;3.35;100.00;98763.59;10251976;28;5001818;-64
2022/04/11 07:45:29;;;;;;;1.75;0.80;;;;;;;3.54;100.00;98755.16;10435485;28;20799;-64
2022/04/11 07:50:32;;;;;;;2.88;0.80;;;;;;;3.71;100.00;98756.63;10436667;28;20171;-65
2022/04/11 07:55:35;;;;;;;2.42;1.00;;;;;;;3.96;100.00;98752.19;10416578;28;20170;-64
2022/04/11 08:00:39;;;;;;;2.70;1.08;;;;;;;4.17;100.00;98752.47;10435237;28;20571;-64
2022/04/11 08:05:42;;;;;;;2.47;0.85;;;;;;;4.38;100.00;98758.00;10436532;28;20038;-63
2022/04/11 08:10:45;;;;;;;2.47;0.80;;;;;;;4.70;100.00;98746.75;10436636;28;20179;-64
2022/04/11 08:15:49;;;;;;;1.90;0.85;;;;;;;4.97;100.00;98736.75;10436895;28;20056;-64
2022/04/11 08:20:52;;;;;;;1.50;0.80;;;;;;;5.26;100.00;98726.50;10435475;28;20052;-64
2022/04/11 08:25:56;;;;;;;2.00;0.90;;;;;;;5.47;100.00;98726.59;10424933;28;20132;-65
2022/04/11 08:31:00;;;;;;;1.30;0.80;;;;;;;5.68;100.00;98726.72;10415105;28;20098;-64
2022/04/11 08:36:29;;;;;;;3.08;0.95;;;;;;;5.86;100.00;98723.56;10436411;28;20052;-65
2022/04/11 08:41:34;;;;;;;1.50;0.80;;;;;;;6.05;100.00;98720.28;10436997;28;20151;-63
2022/04/11 08:46:39;;;;;;;2.85;0.70;;;;;;;6.30;100.00;98710.22;10439266;28;20192;-62
2022/04/11 08:51:43;;;;;;;1.83;0.70;;;;;;;6.54;100.00;98712.69;10443852;28;20077;-63
2022/04/11 08:56:46;;;;;;;1.15;0.63;;;;;;;6.69;100.00;98723.94;10438899;28;20076;-63
2022/04/11 09:01:50;;;;;;;1.30;0.70;;;;;;;6.92;100.00;98721.13;10435722;28;20053;-64
2022/04/11 09:06:57;;;;;;;1.30;0.50;;;;;;;7.14;84.13;98713.94;10438538;28;20531;-65
2022/04/11 09:12:00;;;;;;;1.65;0.68;;;;;;;7.33;100.00;98727.47;10437634;28;20045;-68
2022/04/11 09:17:06;;;;;;;1.90;0.70;;;;;;;7.56;83.40;98730.78;10423104;28;21057;-65
2022/04/11 09:22:14;;;;;;;1.67;0.63;;;;;;;7.69;84.65;98722.53;10437228;28;20053;-61
2022/04/11 09:27:24;;;;;;;0.88;0.43;;;;;;;7.94;72.64;98706.91;10439315;28;20464;-63
2022/04/11 09:32:30;;;;;;;2.60;0.57;;;;;;;8.06;69.76;98709.47;10447440;28;20102;-65
2022/04/11 09:37:35;;;;;;;0.75;0.40;;;;;;;8.13;66.58;98705.28;10466371;28;20797;-67
2022/04/11 09:42:38;;;;;;;1.10;0.60;;;;;;;8.16;67.70;98694.28;10494943;28;20139;-65
2022/04/11 09:47:59;;;;;;;0.60;0.30;;;;;;;8.26;62.16;98694.25;10479127;28;20041;-63
2022/04/11 09:53:13;;;;;;;0.88;0.50;;;;;;;8.27;55.22;98696.84;10470437;28;20057;-64
2022/04/11 09:58:17;;;;;;;1.60;0.52;;;;;;;8.41;66.32;98700.09;10483957;28;20053;-66
2022/04/11 10:03:23;;;;;;;3.20;0.80;;;;;;;8.41;59.94;98697.41;10477981;28;20041;-63
2022/04/11 10:08:28;;;;;;;0.95;0.60;;;;;;;8.44;64.30;98689.06;10469451;28;20057;-65
2022/04/11 10:13:33;;;;;;;1.25;0.47;;;;;;;8.76;67.21;98678.03;10459350;28;20122;-64
2022/04/11 10:18:38;;;;;;;1.80;0.60;;;;;;;8.91;58.90;98678.44;10415978;28;20045;-63
2022/04/11 10:23:52;;;;;;;1.05;0.40;;;;;;;8.84;51.69;98673.78;10434285;28;20056;-64
2022/04/11 10:28:55;;;;;;;1.73;0.40;;;;;;;8.88;54.29;98667.97;10414322;28;21273;-62
2022/04/11 10:34:01;;;;;;;0.80;0.50;;;;;;;9.01;57.52;98658.75;10434083;28;20056;-66
2022/04/11 10:39:25;;;;;;;0.60;0.40;;;;;;;9.27;59.48;98661.66;10432619;28;20049;-66
2022/04/11 10:44:32;;;;;;;1.05;0.50;;;;;;;9.34;55.89;98646.63;10433988;28;20123;-66
2022/04/11 10:50:22;;;;;;;1.13;0.50;;;;;;;9.44;53.50;98635.84;10433748;28;20120;-64
2022/04/11 10:55:25;;;;;;;0.52;0.30;;;;;;;9.40;52.37;98635.28;10433398;28;20049;-67
2022/04/11 11:00:30;;;;;;;0.63;0.40;;;;;;;9.40;54.39;98634.44;10433182;28;20057;-68
2022/04/11 11:05:38;;;;;;;1.02;0.30;;;;;;;9.42;49.28;98635.13;10433762;28;21306;-69
2022/04/11 11:10:43;;;;;;;1.30;0.50;;;;;;;9.61;52.83;98625.25;10432790;28;20045;-68
2022/04/11 11:15:46;;;;;;;1.13;0.50;;;;;;;9.71;51.03;98620.66;10414466;28;20053;-66
2022/04/11 11:20:55;;;;;;;1.48;0.52;;;;;;;9.78;49.94;98626.28;10434405;28;20056;-63
2022/04/11 11:26:09;;;;;;;0.50;0.40;;;;;;;9.93;49.66;98613.19;10443586;28;20460;-69
2022/04/11 11:31:12;;;;;;;0.63;0.40;;;;;;;10.13;50.98;98595.88;10425964;28;20049;-67
2022/04/11 11:36:17;;;;;;;0.85;0.60;;;;;;;10.26;50.79;98600.03;10441075;28;20614;-68
2022/04/11 11:41:22;;;;;;;0.30;0.30;;;;;;;10.35;53.59;98596.41;10440220;28;20044;-65
2022/04/11 11:46:25;;;;;;;1.70;0.68;;;;;;;10.47;49.94;98594.31;10440716;28;20052;-64
2022/04/11 11:51:30;;;;;;;0.77;0.50;;;;;;;10.58;47.15;98590.56;10417502;28;20055;-64
2022/04/11 11:56:40;;;;;;;1.20;0.50;;;;;;;10.74;47.81;98579.91;10441195;28;20106;-64
2022/04/11 12:04:18;;;;;;;1.80;0.47;;;;;;;10.69;45.13;98579.50;10422748;28;20160;-61
2022/04/11 12:07:19;;;;;;;0.50;0.50;;;;;;;10.90;48.77;98579.16;10439184;28;20041;-63
2022/04/11 12:12:24;;;;;;;0.88;0.40;;;;;;;10.98;46.50;98559.47;10439675;28;20075;-64
2022/04/11 12:17:31;;;;;;;0.45;0.30;;;;;;;11.19;45.61;98552.84;10433125;28;21185;-64
2022/04/11 12:22:36;;;;;;;0.88;0.50;;;;;;;11.46;47.68;98542.81;10421890;28;20053;-61
2022/04/11 12:27:39;;;;;;;0.90;0.40;;;;;;;11.52;46.14;98528.66;10439253;28;20048;-60
2022/04/11 12:32:43;;;;;;;1.17;0.40;;;;;;;11.77;49.72;98523.31;10438174;28;20065;-62
2022/04/11 12:37:49;;;;;;;0.50;0.35;;;;;;;12.06;52.40;98520.16;10437875;28;20055;-64
2022/04/11 12:42:59;;;;;;;0.68;0.45;;;;;;;12.15;48.30;98502.94;10439126;28;20049;-63
2022/04/11 12:48:06;;;;;;;1.10;0.60;;;;;;;12.32;50.00;98500.25;10438294;28;20128;-62
2022/04/11 12:53:11;;;;;;;0.70;0.40;;;;;;;12.61;49.79;98488.00;10437587;28;20421;-64
2022/04/11 12:58:14;;;;;;;0.90;0.50;;;;;;;12.62;46.52;98493.28;10436948;28;20529;-63
2022/04/11 13:03:20;;;;;;;0.70;0.45;;;;;;;12.98;46.92;98480.31;10436323;28;20052;-63
2022/04/11 13:08:27;;;;;;;0.90;0.30;;;;;;;13.14;49.75;98474.81;10436114;28;20402;-64
2022/04/11 13:13:33;;;;;;;0.95;0.40;;;;;;;12.88;46.19;98470.53;10435192;28;20061;-64
2022/04/11 13:18:36;;;;;;;0.52;0.40;;;;;;;13.40;48.10;98471.00;10434298;28;20096;-63
2022/04/11 13:23:41;;;;;;;0.88;0.43;;;;;;;13.75;46.04;98463.31;10432984;28;20052;-65
2022/04/11 13:28:44;;;;;;;0.85;0.50;;;;;;;13.88;46.43;98454.56;10434478;28;20052;-64
2022/04/11 13:33:47;;;;;;;0.63;0.40;;;;;;;13.82;45.43;98456.13;10435121;28;20052;-63
2022/04/11 13:38:52;;;;;;;1.25;0.40;;;;;;;14.20;46.51;98444.50;10435575;28;20500;-64
2022/04/11 13:43:56;;;;;;;0.40;0.40;;;;;;;14.41;45.98;98451.06;10434717;28;21346;-65
2022/04/11 13:48:59;;;;;;;1.30;0.40;;;;;;;14.61;46.19;98426.94;10434628;28;20154;-64
2022/04/11 13:54:03;;;;;;;1.05;0.30;;;;;;;14.34;45.01;98421.13;10398891;28;20049;-65
2022/04/11 13:59:07;;;;;;;0.90;0.50;;;;;;;13.95;43.16;98414.91;10418293;28;20141;-65
2022/04/11 14:04:10;;;;;;;1.60;0.50;;;;;;;13.99;41.47;98412.69;10420981;28;20049;-63
2022/04/11 14:09:15;;;;;;;0.52;0.40;;;;;;;14.23;42.98;98408.88;10423383;28;20174;-65
2022/04/11 14:14:38;;;;;;;1.52;0.43;;;;;;;14.60;44.52;98403.56;10421481;28;20040;-67
2022/04/11 14:20:01;;;;;;;1.48;0.60;;;;;;;14.95;44.92;98401.13;10419263;28;20072;-68
2022/04/11 14:25:11;;;;;;;0.85;0.40;;;;;;;14.93;41.24;98392.34;10415633;28;21016;-67
2022/04/11 14:30:34;;;;;;;0.75;0.35;;;;;;;14.62;41.53;98380.66;10433421;28;21296;-67
2022/04/11 14:35:39;;;;;;;0.40;0.40;;;;;;;14.95;45.34;98384.84;10432558;28;20045;-64
2022/04/11 14:40:45;;;;;;;0.85;0.40;;;;;;;15.54;44.81;98380.25;10426448;28;20115;-69
2022/04/11 14:45:48;;;;;;;0.50;0.35;;;;;;;16.14;43.46;98367.19;10427957;28;20059;-66
2022/04/11 14:50:51;;;;;;;1.27;0.40;;;;;;;16.49;44.18;98369.06;10426676;28;20049;-65
2022/04/11 14:55:56;;;;;;;1.48;0.60;;;;;;;16.87;42.83;98373.22;10425141;28;20203;-66
2022/04/11 15:01:03;;;;;;;1.23;0.50;;;;;;;17.02;42.86;98367.63;10411693;28;20460;-67
2022/04/11 15:06:07;;;;;;;0.68;0.40;;;;;;;17.09;42.54;98353.00;10437416;28;20048;-66
2022/04/11 15:11:12;;;;;;;1.10;0.52;;;;;;;17.71;43.35;98352.91;10434615;28;21427;-65
2022/04/11 15:16:15;;;;;;;0.60;0.30;;;;;;;18.24;41.09;98347.63;10434777;28;20135;-64
2022/04/11 15:21:18;;;;;;;0.60;0.40;;;;;;;18.41;41.24;98343.38;10425333;28;20059;-63
2022/04/11 15:26:25;;;;;;;0.60;0.40;;;;;;;18.57;41.35;98341.25;10416980;28;20068;-61
2022/04/11 15:31:28;;;;;;;0.60;0.30;;;;;;;17.72;39.50;98334.66;10433747;28;20084;-63
2022/04/11 15:36:31;;;;;;;1.13;0.40;;;;;;;17.69;41.77;98333.19;10430855;28;20520;-65
2022/04/11 15:41:37;;;;;;;1.17;0.30;;;;;;;17.65;38.16;98331.91;10435829;28;20123;-65
2022/04/11 15:46:41;;;;;;;2.42;0.40;;;;;;;18.22;41.90;98327.91;10433119;28;20135;-65
2022/04/11 15:51:44;;;;;;;1.02;0.30;;;;;;;18.45;41.04;98328.28;10436205;28;20072;-64
2022/04/11 15:56:49;;;;;;;6.40;0.52;;;;;;;18.59;40.32;98320.88;10417207;28;20663;-66
2022/04/11 16:01:52;;;;;;;0.90;0.50;;;;;;;18.60;38.77;98319.00;10428370;28;21038;-61
2022/04/11 16:06:55;;;;;;;0.75;0.47;;;;;;;18.11;36.70;98304.88;10435122;28;20505;-61
2022/04/11 16:12:00;;;;;;;0.68;0.40;;;;;;;17.91;38.30;98315.78;10433267;28;20064;-63
2022/04/11 16:17:04;;;;;;;0.30;0.30;;;;;;;18.28;40.42;98313.44;10435772;28;20083;-64
2022/04/11 16:22:07;;;;;;;0.82;0.50;;;;;;;17.79;40.56;98308.25;10413695;28;20057;-63
2022/04/11 16:27:11;;;;;;;1.20;0.40;;;;;;;18.05;42.62;98306.56;10429624;28;20164;-64
2022/04/11 16:32:17;;;;;;;1.15;0.40;;;;;;;18.04;40.85;98309.50;10430814;28;20037;-62
2022/04/11 16:37:21;;;;;;;1.90;0.50;;;;;;;17.96;42.18;98314.09;10429472;28;20071;-62
2022/04/11 16:42:25;;;;;;;1.08;0.38;;;;;;;18.02;44.23;98309.72;10433244;28;20084;-63
2022/04/11 16:47:30;;;;;;;1.13;0.38;;;;;;;17.53;42.91;98311.81;10428752;28;20053;-65
2022/04/11 16:52:33;;;;;;;0.82;0.50;;;;;;;17.29;42.23;98302.38;10430906;28;20501;-65
2022/04/11 16:57:37;;;;;;;0.85;0.55;;;;;;;17.07;42.99;98302.56;10430016;28;20057;-66
2022/04/11 17:02:41;;;;;;;1.83;1.60;;;;;;;16.41;42.69;98301.25;10430741;28;20136;-65
2022/04/11 17:07:45;;;;;;;2.25;0.60;;;;;;;15.96;44.67;98299.75;10428460;28;20079;-63
2022/04/11 17:12:49;;;;;;;2.90;2.00;;;;;;;15.56;45.15;98299.44;10429547;28;20037;-69
2022/04/11 17:23:19;;;;;;;1.40;0.80;;;;;;;14.87;47.29;98311.75;10412389;28;20061;-66
2022/04/11 17:28:24;;;;;;;1.02;0.60;;;;;;;14.61;47.41;98321.22;10429108;28;20141;-64
2022/04/11 17:33:27;;;;;;;1.15;0.80;;;;;;;14.32;48.28;98321.06;10428185;28;20416;-65
2022/04/11 17:38:30;;;;;;;1.10;0.77;;;;;;;13.94;48.57;98326.56;10428257;28;20059;-65
2022/04/11 17:43:34;;;;;;;1.00;0.52;;;;;;;13.41;49.86;98327.38;10425407;28;20053;-64
2022/04/11 17:48:38;;;;;;;1.42;0.60;;;;;;;12.84;49.91;98333.16;10426493;28;20045;-64
2022/04/11 17:53:41;;;;;;;2.55;0.65;;;;;;;12.25;51.17;98340.72;10426522;28;20078;-66
2022/04/11 17:58:46;;;;;;;0.80;0.68;;;;;;;11.83;51.90;98341.78;10423713;28;21007;-64
2022/04/11 18:03:49;;;;;;;1.45;0.60;;;;;;;11.48;52.83;98343.84;10428368;28;20406;-65
2022/04/11 18:08:52;;;;;;;2.58;1.00;;;;;;;11.13;53.70;98344.00;10427318;28;20041;-64
2022/04/11 18:13:57;;;;;;;1.98;0.90;;;;;;;10.82;54.78;98351.88;10427812;28;20049;-67
2022/04/11 18:19:00;;;;;;;1.25;0.90;;;;;;;10.58;55.68;98356.19;10424505;28;20397;-67
2022/04/11 18:24:10;;;;;;;1.80;0.90;;;;;;;10.31;56.72;98344.59;10428751;28;20147;-65
2022/04/11 18:34:35;;;;;;;2.38;1.05;;;;;;;9.90;70.48;98339.81;10424241;28;20120;-65
2022/04/11 18:39:39;;;;;;;1.10;0.70;;;;;;;9.61;72.63;98345.53;10426311;28;20049;-65
2022/04/11 18:44:44;;;;;;;1.88;0.93;;;;;;;9.42;77.23;98352.78;10426278;28;20559;-64
2022/04/11 18:49:48;;;;;;;1.38;1.00;;;;;;;9.24;70.23;98348.25;10413858;28;20149;-64
2022/04/11 18:54:51;;;;;;;1.00;0.88;;;;;;;9.17;69.61;98360.63;10413344;28;20052;-65
2022/04/11 18:59:56;;;;;;;2.60;1.00;;;;;;;9.12;72.03;98356.72;10411730;28;20053;-64
2022/04/11 19:05:00;;;;;;;3.20;1.20;;;;;;;9.02;75.38;98354.97;10410178;28;20561;-64
2022/04/11 19:10:10;;;;;;;1.65;1.02;;;;;;;8.90;79.81;98357.00;10409056;28;20530;-63
2022/04/11 19:15:14;;;;;;;1.83;0.98;;;;;;;8.77;83.86;98361.91;10413174;28;20067;-63
2022/04/11 19:20:18;;;;;;;2.25;1.20;;;;;;;8.66;85.66;98364.81;10423048;28;20126;-65
2022/04/11 19:25:21;;;;;;;2.03;1.08;;;;;;;8.54;89.05;98365.00;10424707;28;20055;-64
2022/04/11 19:30:25;;;;;;;1.80;1.08;;;;;;;8.48;90.22;98365.63;10407243;28;20536;-66
2022/04/11 19:35:28;;;;;;;3.65;1.20;;;;;;;8.39;91.33;98366.50;10428107;28;20130;-65
2022/04/11 19:40:33;;;;;;;2.17;1.20;;;;;;;8.27;94.55;98369.38;10424332;28;20118;-65
2022/04/11 19:45:38;;;;;;;2.00;1.10;;;;;;;8.18;95.60;98365.72;10433233;28;20088;-64
2022/04/11 19:50:45;;;;;;;1.92;1.10;;;;;;;8.12;97.68;98370.84;10420139;28;20596;-63
2022/04/11 19:55:48;;;;;;;2.03;1.20;;;;;;;8.02;100.00;98371.72;10433755;28;20127;-63
2022/04/11 20:00:53;;;;;;;1.65;1.10;;;;;;;7.94;100.00;98382.31;10432273;28;20069;-63
2022/04/11 20:05:56;;;;;;;1.10;1.00;;;;;;;7.86;100.00;98374.16;10433195;28;20144;-63
2022/04/11 20:10:59;;;;;;;4.22;1.15;;;;;;;7.77;100.00;98366.97;10433448;28;20483;-63
2022/04/11 20:16:06;;;;;;;1.85;1.20;;;;;;;7.65;100.00;98379.69;10431501;28;20056;-65
2022/04/11 20:21:09;;;;;;;1.10;1.00;;;;;;;7.59;100.00;98378.44;10426887;28;20049;-67
2022/04/11 20:26:14;;;;;;;2.13;1.20;;;;;;;7.56;100.00;98384.94;10417402;28;20226;-68
2022/04/11 20:31:20;;;;;;;1.83;1.10;;;;;;;7.44;100.00;98379.88;10416828;28;20077;-68
2022/04/11 20:36:24;;;;;;;1.65;1.10;;;;;;;7.37;100.00;98382.28;10435438;28;20056;-67
2022/04/11 20:41:28;;;;;;;2.33;1.10;;;;;;;7.31;100.00;98372.97;10436369;28;20067;-67
2022/04/11 20:46:33;;;;;;;2.53;1.50;;;;;;;7.21;100.00;98372.13;10432291;28;21452;-69
2022/04/11 20:51:43;;;;;;;2.13;1.20;;;;;;;7.13;100.00;98375.50;10432855;28;20122;-67
2022/04/11 20:56:46;;;;;;;1.58;1.20;;;;;;;7.08;100.00;98388.47;10413404;28;20125;-69
2022/04/11 21:01:51;;;;;;;2.03;1.20;;;;;;;7.04;100.00;98387.06;10429830;28;20057;-67
2022/04/11 21:06:54;;;;;;;1.70;1.40;;;;;;;7.00;100.00;98389.16;10428520;28;20044;-67
2022/04/11 21:12:00;;;;;;;1.85;1.20;;;;;;;6.95;100.00;98391.44;10430730;28;20056;-67
2022/04/11 21:17:05;;;;;;;2.25;1.27;;;;;;;6.87;100.00;98394.78;10430912;28;20041;-66
2022/04/11 21:22:09;;;;;;;1.70;1.17;;;;;;;6.78;100.00;98387.59;10432282;28;20047;-67
2022/04/11 21:27:12;;;;;;;1.92;1.10;;;;;;;6.74;100.00;98391.53;10428213;28;20040;-69
2022/04/11 21:32:17;;;;;;;1.48;1.20;;;;;;;6.70;100.00;98390.13;10426158;28;20698;-69
2022/04/11 21:37:20;;;;;;;1.60;1.20;;;;;;;6.60;100.00;98390.91;10428060;28;20045;-69
2022/04/11 21:42:24;;;;;;;2.85;1.10;;;;;;;6.58;100.00;98390.25;10428202;28;20144;-69
2022/04/11 21:47:28;;;;;;;1.63;1.23;;;;;;;6.50;100.00;98398.09;10432415;28;20037;-69
2022/04/11 21:52:31;;;;;;;3.70;1.20;;;;;;;6.44;100.00;98385.25;10415489;28;20037;-67
2022/04/11 21:57:34;;;;;;;2.25;1.05;;;;;;;6.37;100.00;98374.25;10430976;28;20067;-70
2022/04/11 22:08:00;;;;;;;3.13;1.33;;;;;;;6.23;100.00;98374.59;10426668;28;20049;-68
2022/04/11 22:13:07;;;;;;;2.00;1.40;;;;;;;6.20;100.00;98374.88;10422441;28;20045;-68
2022/04/11 22:18:12;;;;;;;1.95;1.30;;;;;;;6.15;100.00;98380.63;10399979;28;20049;-69
2022/04/11 22:23:15;;;;;;;1.50;1.30;;;;;;;6.13;100.00;98380.78;10414917;28;20096;-68
2022/04/11 22:28:18;;;;;;;2.97;1.23;;;;;;;6.15;100.00;98392.19;10413061;28;20045;-68
2022/04/11 22:33:23;;;;;;;2.03;1.30;;;;;;;6.15;100.00;98385.97;10398723;28;20262;-69
2022/04/11 22:38:27;;;;;;;1.33;1.23;;;;;;;6.11;100.00;98393.44;10414571;28;20997;-68
2022/04/11 22:43:30;;;;;;;2.22;1.30;;;;;;;6.07;100.00;98383.97;10446278;22;20249;-59
2022/04/11 22:48:34;;;;;;;1.75;1.20;;;;;;;6.06;100.00;98384.94;10460547;28;20423;-60
2022/04/11 22:53:38;;;;;;;2.80;1.30;;;;;;;6.02;100.00;98380.88;10467744;28;20435;-61
2022/04/11 22:58:41;;;;;;;1.58;1.15;;;;;;;5.97;100.00;98377.69;10504230;28;20048;-61
2022/04/11 23:03:45;;;;;;;2.67;1.20;;;;;;;5.95;100.00;98374.31;10506916;28;20044;-61
2022/04/11 23:08:48;;;;;;;2.65;1.30;;;;;;;5.95;100.00;98366.28;10507094;28;20040;-61
2022/04/11 23:13:51;;;;;;;2.05;1.10;;;;;;;5.98;100.00;98384.75;10503185;28;20046;-61
2022/04/11 23:18:56;;;;;;;2.13;1.10;;;;;;;5.97;100.00;98373.22;10490501;28;20055;-59
2022/04/11 23:23:59;;;;;;;3.35;1.30;;;;;;;5.96;100.00;98376.00;10512760;28;20039;-61
2022/04/11 23:29:02;;;;;;;1.42;1.23;;;;;;;5.95;100.00;98374.31;10512021;28;20114;-60
2022/04/11 23:34:07;;;;;;;1.67;1.20;;;;;;;5.93;100.00;98376.28;10512263;28;20415;-60
2022/04/11 23:39:10;;;;;;;1.73;1.20;;;;;;;5.93;100.00;98376.28;10511642;28;20048;-56
2022/04/11 23:44:13;;;;;;;1.98;1.27;;;;;;;5.91;100.00;98375.56;10514904;28;20427;-59
2022/04/11 23:49:19;;;;;;;2.13;1.30;;;;;;;5.89;100.00;98380.19;10508521;28;20114;-61
2022/04/11 23:54:22;;;;;;;1.63;1.20;;;;;;;5.88;100.00;98373.97;10509564;28;20759;-60